createdAt,value
2023-05-05T00:00:52.096Z,44.76
2023-05-05T00:01:36.774Z,45.37
2023-05-05T00:02:32.411Z,45.37
2023-05-05T00:03:27.973Z,45.17
2023-05-05T00:04:23.480Z,45.17
2023-05-05T00:05:18.932Z,46.00
2023-05-05T00:06:14.465Z,45.78
2023-05-05T00:07:10.012Z,45.67
2023-05-05T00:08:05.558Z,44.66
2023-05-05T00:09:01.100Z,44.56
2023-05-05T00:09:56.677Z,45.27
2023-05-05T00:10:52.214Z,46.08
2023-05-05T00:11:47.743Z,45.70
2023-05-05T00:12:43.299Z,45.27
2023-05-05T00:13:38.818Z,45.37
2023-05-05T00:14:34.372Z,45.70
2023-05-05T00:15:29.913Z,45.70
2023-05-05T00:16:25.456Z,45.70
2023-05-05T00:17:20.984Z,45.79
2023-05-05T00:18:16.537Z,45.90
2023-05-05T00:19:12.076Z,45.47
2023-05-05T00:20:07.949Z,45.79
2023-05-05T00:21:03.152Z,45.70
2023-05-05T00:21:58.701Z,45.29
2023-05-05T00:22:54.241Z,46.30
2023-05-05T00:23:49.794Z,46.71
2023-05-05T00:24:45.337Z,46.41
2023-05-05T00:25:40.857Z,46.30
2023-05-05T00:26:36.409Z,47.11
2023-05-05T00:27:31.950Z,46.00
2023-05-05T00:28:27.529Z,46.30
2023-05-05T00:29:23.074Z,46.61
2023-05-05T00:30:18.607Z,46.43
2023-05-05T00:31:14.273Z,46.61
2023-05-05T00:31:58.823Z,45.70
2023-05-05T00:32:54.406Z,47.02
2023-05-05T00:33:49.942Z,46.61
2023-05-05T00:34:45.472Z,46.83
2023-05-05T00:35:41.034Z,46.63
2023-05-05T00:36:25.660Z,47.14
2023-05-05T00:37:21.202Z,46.83
2023-05-05T00:38:16.744Z,47.24
2023-05-05T00:39:12.282Z,46.94
2023-05-05T00:40:08.166Z,46.53
2023-05-05T00:41:03.357Z,46.83
2023-05-05T00:41:48.026Z,46.43
2023-05-05T00:42:43.568Z,46.53
2023-05-05T00:43:39.112Z,46.94
2023-05-05T00:44:34.657Z,46.73
2023-05-05T00:45:30.198Z,46.73
2023-05-05T00:46:25.773Z,46.73
2023-05-05T00:47:21.300Z,46.83
2023-05-05T00:48:16.868Z,46.75
2023-05-05T00:49:12.466Z,47.34
2023-05-05T00:50:08.134Z,46.65
2023-05-05T00:51:03.542Z,46.65
2023-05-05T00:51:59.062Z,47.03
2023-05-05T00:52:54.601Z,46.63
2023-05-05T00:53:50.136Z,46.86
2023-05-05T00:54:45.673Z,46.75
2023-05-05T00:55:41.209Z,46.65
2023-05-05T00:56:36.794Z,46.73
2023-05-05T00:57:32.323Z,47.06
2023-05-05T00:58:17.004Z,47.14
2023-05-05T00:59:01.666Z,47.06
2023-05-05T00:59:46.342Z,46.95
2023-05-05T01:00:41.889Z,47.03
2023-05-05T01:01:37.453Z,46.95
2023-05-05T01:02:32.986Z,46.65
2023-05-05T01:03:28.513Z,46.73
2023-05-05T01:04:24.023Z,47.16
2023-05-05T01:05:19.564Z,47.16
2023-05-05T01:06:04.237Z,46.55
2023-05-05T01:06:59.790Z,46.55
2023-05-05T01:07:55.326Z,47.08
2023-05-05T01:08:50.890Z,46.86
2023-05-05T01:09:46.423Z,47.87
2023-05-05T01:10:41.965Z,47.56
2023-05-05T01:11:37.493Z,46.55
2023-05-05T01:12:33.065Z,47.26
2023-05-05T01:13:28.602Z,46.78
2023-05-05T01:14:24.130Z,46.35
2023-05-05T01:15:19.679Z,46.67
2023-05-05T01:16:04.371Z,46.65
2023-05-05T01:16:59.912Z,47.69
2023-05-05T01:17:55.458Z,47.79
2023-05-05T01:18:50.992Z,47.79
2023-05-05T01:19:46.538Z,47.69
2023-05-05T01:20:42.067Z,47.79
2023-05-05T01:21:37.613Z,47.08
2023-05-05T01:22:33.187Z,47.38
2023-05-05T01:23:17.814Z,47.79
2023-05-05T01:24:13.363Z,47.08
2023-05-05T01:25:08.901Z,46.78
2023-05-05T01:26:04.450Z,47.08
2023-05-05T01:27:00.001Z,47.08
2023-05-05T01:27:55.547Z,47.89
2023-05-05T01:28:51.093Z,48.10
2023-05-05T01:29:46.675Z,47.41
2023-05-05T01:30:42.209Z,47.89
2023-05-05T01:31:37.839Z,47.38
2023-05-05T01:32:33.298Z,47.71
2023-05-05T01:33:28.834Z,47.51
2023-05-05T01:34:24.366Z,47.71
2023-05-05T01:35:24.925Z,47.41
2023-05-05T01:36:20.469Z,47.30
2023-05-05T01:37:16.001Z,46.98
2023-05-05T01:38:11.554Z,47.28
2023-05-05T01:39:07.065Z,47.51
2023-05-05T01:40:02.598Z,47.38
2023-05-05T01:40:58.176Z,48.02
2023-05-05T01:41:53.698Z,47.51
2023-05-05T01:42:49.247Z,47.71
2023-05-05T01:43:44.774Z,48.11
2023-05-05T01:44:40.303Z,47.71
2023-05-05T01:45:35.894Z,47.51
2023-05-05T01:46:31.412Z,47.61
2023-05-05T01:47:26.990Z,47.71
2023-05-05T01:48:11.617Z,47.30
2023-05-05T01:49:07.143Z,47.81
2023-05-05T01:50:02.697Z,47.51
2023-05-05T01:50:58.231Z,48.11
2023-05-05T01:51:42.895Z,47.71
2023-05-05T01:52:38.438Z,47.91
2023-05-05T01:53:34.006Z,47.51
2023-05-05T01:54:29.529Z,48.22
2023-05-05T01:55:25.063Z,47.71
2023-05-05T01:56:20.595Z,47.51
2023-05-05T01:57:16.136Z,48.34
2023-05-05T01:58:11.695Z,47.53
2023-05-05T01:59:07.241Z,47.94
2023-05-05T01:59:51.899Z,47.53
2023-05-05T02:00:36.574Z,48.75
2023-05-05T02:01:32.140Z,48.14
2023-05-05T02:02:27.715Z,47.63
2023-05-05T02:03:23.241Z,48.34
2023-05-05T02:04:18.720Z,48.34
2023-05-05T02:05:14.267Z,47.74
2023-05-05T02:06:09.793Z,48.34
2023-05-05T02:07:05.329Z,47.74
2023-05-05T02:08:00.863Z,48.24
2023-05-05T02:08:56.430Z,48.34
2023-05-05T02:09:51.955Z,48.55
2023-05-05T02:10:47.507Z,47.86
2023-05-05T02:11:43.042Z,48.67
2023-05-05T02:12:38.603Z,48.27
2023-05-05T02:13:34.167Z,48.14
2023-05-05T02:14:29.681Z,48.16
2023-05-05T02:15:25.218Z,48.16
2023-05-05T02:16:20.815Z,48.97
2023-05-05T02:17:16.304Z,48.55
2023-05-05T02:18:11.854Z,48.24
2023-05-05T02:19:07.385Z,48.04
2023-05-05T02:20:10.178Z,48.47
2023-05-05T02:21:05.613Z,48.16
2023-05-05T02:22:01.172Z,47.96
2023-05-05T02:22:56.685Z,48.44
2023-05-05T02:23:52.225Z,48.06
2023-05-05T02:24:48.268Z,47.75
2023-05-05T02:25:43.790Z,48.77
2023-05-05T02:26:39.331Z,48.27
2023-05-05T02:27:34.879Z,48.67
2023-05-05T02:28:30.416Z,48.47
2023-05-05T02:29:26.532Z,48.57
2023-05-05T02:30:22.120Z,48.16
2023-05-05T02:31:17.714Z,48.77
2023-05-05T02:32:13.203Z,48.57
2023-05-05T02:33:08.735Z,48.80
2023-05-05T02:34:04.265Z,48.87
2023-05-05T02:34:59.801Z,48.67
2023-05-05T02:35:55.348Z,48.77
2023-05-05T02:36:50.897Z,48.57
2023-05-05T02:37:46.441Z,48.90
2023-05-05T02:38:41.971Z,48.69
2023-05-05T02:39:37.496Z,49.38
2023-05-05T02:40:33.067Z,49.20
2023-05-05T02:41:28.595Z,49.20
2023-05-05T02:42:24.136Z,48.90
2023-05-05T02:43:19.736Z,49.10
2023-05-05T02:44:15.195Z,49.00
2023-05-05T02:45:10.725Z,49.20
2023-05-05T02:46:06.281Z,48.28
2023-05-05T02:47:01.824Z,48.49
2023-05-05T02:47:57.434Z,49.00
2023-05-05T02:48:52.933Z,49.10
2023-05-05T02:49:48.447Z,48.39
2023-05-05T02:50:43.999Z,49.20
2023-05-05T02:51:39.526Z,48.19
2023-05-05T02:52:35.061Z,48.49
2023-05-05T02:53:30.596Z,49.30
2023-05-05T02:54:26.134Z,48.90
2023-05-05T02:55:21.678Z,48.69
2023-05-05T02:56:17.233Z,49.51
2023-05-05T02:57:12.747Z,49.30
2023-05-05T02:58:08.299Z,49.51
2023-05-05T02:59:03.822Z,49.51
2023-05-05T02:59:59.348Z,48.90
2023-05-05T03:00:54.882Z,49.40
2023-05-05T03:01:50.490Z,48.72
2023-05-05T03:02:46.019Z,49.20
2023-05-05T03:03:41.633Z,48.61
2023-05-05T03:04:37.035Z,48.72
2023-05-05T03:05:32.582Z,48.82
2023-05-05T03:06:28.119Z,48.61
2023-05-05T03:07:23.663Z,49.30
2023-05-05T03:08:19.189Z,49.22
2023-05-05T03:09:14.714Z,49.51
2023-05-05T03:10:10.386Z,49.02
2023-05-05T03:11:05.790Z,49.22
2023-05-05T03:12:01.355Z,48.92
2023-05-05T03:12:56.859Z,49.53
2023-05-05T03:13:52.379Z,49.12
2023-05-05T03:14:47.911Z,48.92
2023-05-05T03:15:43.458Z,49.53
2023-05-05T03:16:39.063Z,48.92
2023-05-05T03:17:34.561Z,48.61
2023-05-05T03:18:30.067Z,49.22
2023-05-05T03:19:25.599Z,48.92
2023-05-05T03:20:21.142Z,48.72
2023-05-05T03:21:16.687Z,48.72
2023-05-05T03:22:12.206Z,49.73
2023-05-05T03:23:07.782Z,49.43
2023-05-05T03:24:03.350Z,49.25
2023-05-05T03:24:58.863Z,49.55
2023-05-05T03:25:54.388Z,49.45
2023-05-05T03:26:49.934Z,49.65
2023-05-05T03:27:45.493Z,48.92
2023-05-05T03:28:41.008Z,48.72
2023-05-05T03:29:36.544Z,49.25
2023-05-05T03:30:32.184Z,48.92
2023-05-05T03:31:27.636Z,48.74
2023-05-05T03:32:23.151Z,49.04
2023-05-05T03:33:18.703Z,48.94
2023-05-05T03:34:14.237Z,49.12
2023-05-05T03:35:09.764Z,49.43
2023-05-05T03:36:05.306Z,49.86
2023-05-05T03:37:00.839Z,49.63
2023-05-05T03:37:56.374Z,49.02
2023-05-05T03:38:51.905Z,49.25
2023-05-05T03:39:47.460Z,49.35
2023-05-05T03:40:44.647Z,49.55
2023-05-05T03:41:38.522Z,49.55
2023-05-05T03:42:34.056Z,49.45
2023-05-05T03:43:29.615Z,49.86
2023-05-05T03:44:25.143Z,49.65
2023-05-05T03:45:20.679Z,49.15
2023-05-05T03:46:16.417Z,49.35
2023-05-05T03:47:11.746Z,49.45
2023-05-05T03:48:07.302Z,49.55
2023-05-05T03:49:02.810Z,49.35
2023-05-05T03:49:58.345Z,49.35
2023-05-05T03:50:53.879Z,50.67
2023-05-05T03:51:49.421Z,49.76
2023-05-05T03:52:44.957Z,50.06
2023-05-05T03:53:40.486Z,50.37
2023-05-05T03:54:36.021Z,50.67
2023-05-05T03:55:31.585Z,49.86
2023-05-05T03:56:27.105Z,50.37
2023-05-05T03:57:22.636Z,49.48
2023-05-05T03:58:18.169Z,50.26
2023-05-05T03:59:13.713Z,50.70
2023-05-05T04:00:09.336Z,50.67
2023-05-05T04:01:04.779Z,50.70
2023-05-05T04:02:00.475Z,50.67
2023-05-05T04:02:55.934Z,50.39
2023-05-05T04:03:51.434Z,49.35
2023-05-05T04:04:46.913Z,49.86
2023-05-05T04:05:42.448Z,50.78
2023-05-05T04:06:37.997Z,51.00
2023-05-05T04:07:33.535Z,50.29
2023-05-05T04:08:29.117Z,50.78
2023-05-05T04:09:24.617Z,50.80
2023-05-05T04:10:20.171Z,50.80
2023-05-05T04:11:15.709Z,51.51
2023-05-05T04:12:11.240Z,50.80
2023-05-05T04:13:06.786Z,50.70
2023-05-05T04:14:02.302Z,51.00
2023-05-05T04:14:57.882Z,50.70
2023-05-05T04:15:53.449Z,50.59
2023-05-05T04:16:48.934Z,51.10
2023-05-05T04:17:44.512Z,50.80
2023-05-05T04:18:40.040Z,50.80
2023-05-05T04:19:35.559Z,50.90
2023-05-05T04:20:31.089Z,51.31
2023-05-05T04:21:26.634Z,51.31
2023-05-05T04:22:22.179Z,51.61
2023-05-05T04:23:17.704Z,51.20
2023-05-05T04:24:13.245Z,51.72
2023-05-05T04:25:08.776Z,51.81
2023-05-05T04:26:04.318Z,51.31
2023-05-05T04:26:59.889Z,51.10
2023-05-05T04:27:55.427Z,51.51
2023-05-05T04:28:50.962Z,51.20
2023-05-05T04:29:46.494Z,50.70
2023-05-05T04:30:42.055Z,51.10
2023-05-05T04:31:37.605Z,50.90
2023-05-05T04:32:33.099Z,51.00
2023-05-05T04:33:28.623Z,51.31
2023-05-05T04:34:24.161Z,51.92
2023-05-05T04:35:19.713Z,51.61
2023-05-05T04:36:15.241Z,52.02
2023-05-05T04:37:10.802Z,51.81
2023-05-05T04:38:06.352Z,52.02
2023-05-05T04:39:01.910Z,52.02
2023-05-05T04:39:57.427Z,51.31
2023-05-05T04:40:52.971Z,52.33
2023-05-05T04:41:48.511Z,52.12
2023-05-05T04:42:44.044Z,52.53
2023-05-05T04:43:39.584Z,51.72
2023-05-05T04:44:35.121Z,52.83
2023-05-05T04:45:30.655Z,53.04
2023-05-05T04:46:26.239Z,53.34
2023-05-05T04:47:21.736Z,51.72
2023-05-05T04:48:17.283Z,52.22
2023-05-05T04:49:12.817Z,52.33
2023-05-05T04:50:08.573Z,52.33
2023-05-05T04:51:03.884Z,52.22
2023-05-05T04:51:59.446Z,52.73
2023-05-05T04:52:54.997Z,52.73
2023-05-05T04:53:50.530Z,52.53
2023-05-05T04:54:46.075Z,52.22
2023-05-05T04:55:41.638Z,52.22
2023-05-05T04:56:37.243Z,51.31
2023-05-05T04:57:32.704Z,52.22
2023-05-05T04:58:28.248Z,52.12
2023-05-05T04:59:23.789Z,52.83
2023-05-05T05:00:19.370Z,52.22
2023-05-05T05:01:14.917Z,52.33
2023-05-05T05:02:10.541Z,51.81
2023-05-05T05:03:06.100Z,52.53
2023-05-05T05:04:01.644Z,52.73
2023-05-05T05:04:57.115Z,52.53
2023-05-05T05:05:52.682Z,52.33
2023-05-05T05:06:48.184Z,52.33
2023-05-05T05:07:43.736Z,51.51
2023-05-05T05:08:39.287Z,52.73
2023-05-05T05:09:34.825Z,52.33
2023-05-05T05:10:30.364Z,52.53
2023-05-05T05:11:25.904Z,52.63
2023-05-05T05:12:21.436Z,51.81
2023-05-05T05:13:17.015Z,52.53
2023-05-05T05:14:12.558Z,52.73
2023-05-05T05:15:08.120Z,52.33
2023-05-05T05:16:03.716Z,52.33
2023-05-05T05:16:59.293Z,52.94
2023-05-05T05:17:54.926Z,51.92
2023-05-05T05:18:50.386Z,52.22
2023-05-05T05:19:45.921Z,51.72
2023-05-05T05:20:41.466Z,52.02
2023-05-05T05:21:37.015Z,51.31
2023-05-05T05:22:32.555Z,51.61
2023-05-05T05:23:28.087Z,52.63
2023-05-05T05:24:23.610Z,52.12
2023-05-05T05:25:19.148Z,52.12
2023-05-05T05:26:14.773Z,52.53
2023-05-05T05:27:10.466Z,52.53
2023-05-05T05:28:10.590Z,52.94
2023-05-05T05:29:01.460Z,52.33
2023-05-05T05:29:56.987Z,52.20
2023-05-05T05:30:52.530Z,52.53
2023-05-05T05:31:48.097Z,52.22
2023-05-05T05:32:43.614Z,52.61
2023-05-05T05:33:39.200Z,52.40
2023-05-05T05:34:34.672Z,52.30
2023-05-05T05:35:30.221Z,52.00
2023-05-05T05:36:26.641Z,51.69
2023-05-05T05:37:22.202Z,51.18
2023-05-05T05:38:17.744Z,52.20
2023-05-05T05:39:13.277Z,52.20
2023-05-05T05:40:09.001Z,51.28
2023-05-05T05:41:04.368Z,51.59
2023-05-05T05:41:59.947Z,51.69
2023-05-05T05:42:55.481Z,51.69
2023-05-05T05:43:40.132Z,51.39
2023-05-05T05:44:35.690Z,51.28
2023-05-05T05:45:31.225Z,50.98
2023-05-05T05:46:26.804Z,51.59
2023-05-05T05:47:22.323Z,52.20
2023-05-05T05:48:17.878Z,51.69
2023-05-05T05:49:02.561Z,51.89
2023-05-05T05:49:58.060Z,52.50
2023-05-05T05:50:53.598Z,52.30
2023-05-05T05:51:49.141Z,51.48
2023-05-05T05:52:44.689Z,51.69
2023-05-05T05:53:40.245Z,51.26
2023-05-05T05:54:35.780Z,51.18
2023-05-05T05:55:31.321Z,50.67
2023-05-05T05:56:26.868Z,51.06
2023-05-05T05:57:22.390Z,51.79
2023-05-05T05:58:17.921Z,51.46
2023-05-05T05:59:13.450Z,51.59
2023-05-05T06:00:09.232Z,51.56
2023-05-05T06:01:04.523Z,51.26
2023-05-05T06:02:00.121Z,50.85
2023-05-05T06:02:55.809Z,51.56
2023-05-05T06:03:51.226Z,50.65
2023-05-05T06:04:46.723Z,50.85
2023-05-05T06:05:42.254Z,50.55
2023-05-05T06:06:37.785Z,50.55
2023-05-05T06:07:33.339Z,51.14
2023-05-05T06:08:28.865Z,50.83
2023-05-05T06:09:24.411Z,51.23
2023-05-05T06:10:28.052Z,50.52
2023-05-05T06:11:15.498Z,50.42
2023-05-05T06:12:11.035Z,50.90
2023-05-05T06:13:06.694Z,50.83
2023-05-05T06:14:02.103Z,50.70
2023-05-05T06:14:57.647Z,50.81
2023-05-05T06:15:54.210Z,48.97
2023-05-05T06:16:49.724Z,49.89
2023-05-05T06:17:45.268Z,49.48
2023-05-05T06:18:40.785Z,49.18
2023-05-05T06:19:36.315Z,49.08
2023-05-05T06:20:31.883Z,49.26
2023-05-05T06:21:27.380Z,49.16
2023-05-05T06:22:22.914Z,49.16
2023-05-05T06:23:18.448Z,49.44
2023-05-05T06:24:13.993Z,49.44
2023-05-05T06:25:09.528Z,48.52
2023-05-05T06:26:05.072Z,48.50
2023-05-05T06:27:00.636Z,48.11
2023-05-05T06:27:56.157Z,48.40
2023-05-05T06:28:51.725Z,48.10
2023-05-05T06:29:47.265Z,47.69
2023-05-05T06:30:42.809Z,47.69
2023-05-05T06:31:38.422Z,47.77
2023-05-05T06:32:33.930Z,47.46
2023-05-05T06:33:29.403Z,47.46
2023-05-05T06:34:24.938Z,47.64
2023-05-05T06:35:20.471Z,48.18
2023-05-05T06:36:16.135Z,47.95
2023-05-05T06:37:11.601Z,47.75
2023-05-05T06:38:07.156Z,47.34
2023-05-05T06:39:02.715Z,47.75
2023-05-05T06:39:58.215Z,47.72
2023-05-05T06:40:53.757Z,46.91
2023-05-05T06:41:49.295Z,46.71
2023-05-05T06:42:44.825Z,46.71
2023-05-05T06:43:40.375Z,47.11
2023-05-05T06:44:35.912Z,46.59
2023-05-05T06:45:31.454Z,47.11
2023-05-05T06:46:27.081Z,46.59
2023-05-05T06:47:22.546Z,46.69
2023-05-05T06:48:18.087Z,45.87
2023-05-05T06:49:13.637Z,46.28
2023-05-05T06:50:09.567Z,45.67
2023-05-05T06:51:04.721Z,45.67
2023-05-05T06:52:00.395Z,45.57
2023-05-05T06:52:55.784Z,45.07
2023-05-05T06:53:51.326Z,44.36
2023-05-05T06:54:46.861Z,44.56
2023-05-05T06:55:42.403Z,44.54
2023-05-05T06:56:37.954Z,44.46
2023-05-05T06:57:33.508Z,44.95
2023-05-05T06:58:29.047Z,45.75
2023-05-05T06:59:24.589Z,44.44
2023-05-05T07:00:09.211Z,44.95
2023-05-05T07:01:04.656Z,44.84
2023-05-05T07:02:00.165Z,44.74
2023-05-05T07:02:55.711Z,45.04
2023-05-05T07:03:51.227Z,44.82
2023-05-05T07:04:46.771Z,44.62
2023-05-05T07:05:42.331Z,44.52
2023-05-05T07:06:37.876Z,44.01
2023-05-05T07:07:33.609Z,44.62
2023-05-05T07:08:28.935Z,44.12
2023-05-05T07:09:24.517Z,43.59
2023-05-05T07:10:20.043Z,43.81
2023-05-05T07:11:15.577Z,43.79
2023-05-05T07:12:11.119Z,43.69
2023-05-05T07:13:06.735Z,43.38
2023-05-05T07:14:02.221Z,42.68
2023-05-05T07:14:57.764Z,42.88
2023-05-05T07:15:42.419Z,43.29
2023-05-05T07:16:38.079Z,43.99
2023-05-05T07:17:33.578Z,43.49
2023-05-05T07:18:29.038Z,43.57
2023-05-05T07:19:24.578Z,44.07
2023-05-05T07:20:20.122Z,42.76
2023-05-05T07:21:15.654Z,42.23
2023-05-05T07:22:11.200Z,42.54
2023-05-05T07:23:06.841Z,42.33
2023-05-05T07:24:02.284Z,42.41
2023-05-05T07:24:57.841Z,41.93
2023-05-05T07:25:53.391Z,42.74
2023-05-05T07:26:48.934Z,43.04
2023-05-05T07:27:44.482Z,43.34
2023-05-05T07:28:40.033Z,43.24
2023-05-05T07:29:35.573Z,43.04
2023-05-05T07:30:31.108Z,42.72
2023-05-05T07:31:26.858Z,43.02
2023-05-05T07:32:22.276Z,42.61
2023-05-05T07:33:17.743Z,43.12
2023-05-05T07:34:13.266Z,42.82
2023-05-05T07:35:08.876Z,42.11
2023-05-05T07:36:04.353Z,41.71
2023-05-05T07:36:59.910Z,42.01
2023-05-05T07:37:55.441Z,42.01
2023-05-05T07:38:51.108Z,41.91
2023-05-05T07:39:46.534Z,41.61
2023-05-05T07:40:42.091Z,40.80
2023-05-05T07:41:37.633Z,41.81
2023-05-05T07:42:33.154Z,41.30
2023-05-05T07:43:28.704Z,40.80
2023-05-05T07:44:24.245Z,40.70
2023-05-05T07:45:19.776Z,41.50
2023-05-05T07:46:15.371Z,41.71
2023-05-05T07:47:10.856Z,41.20
2023-05-05T07:48:06.507Z,41.89
2023-05-05T07:49:02.001Z,41.89
2023-05-05T07:49:57.560Z,41.99
2023-05-05T07:50:53.081Z,42.29
2023-05-05T07:51:48.622Z,41.28
2023-05-05T07:52:49.987Z,41.77
2023-05-05T07:53:39.715Z,41.79
2023-05-05T07:54:35.407Z,41.79
2023-05-05T07:55:30.802Z,41.28
2023-05-05T07:56:26.343Z,41.39
2023-05-05T07:57:21.889Z,41.79
2023-05-05T07:58:17.447Z,41.77
2023-05-05T07:59:12.993Z,41.56
2023-05-05T08:00:08.721Z,41.79
2023-05-05T08:01:04.079Z,41.97
2023-05-05T08:01:59.618Z,41.79
2023-05-05T08:02:55.473Z,41.69
2023-05-05T08:03:50.812Z,42.07
2023-05-05T08:04:46.288Z,42.07
2023-05-05T08:05:41.790Z,41.67
2023-05-05T08:06:37.309Z,42.18
2023-05-05T08:07:32.850Z,42.05
2023-05-05T08:08:28.385Z,40.44
2023-05-05T08:09:23.932Z,40.84
2023-05-05T08:10:19.606Z,41.35
2023-05-05T08:11:15.005Z,40.94
2023-05-05T08:12:10.543Z,40.84
2023-05-05T08:13:06.125Z,41.14
2023-05-05T08:14:01.629Z,41.14
2023-05-05T08:14:57.170Z,41.75
2023-05-05T08:15:52.769Z,41.42
2023-05-05T08:16:48.272Z,41.63
2023-05-05T08:17:43.823Z,41.73
2023-05-05T08:18:39.366Z,41.53
2023-05-05T08:19:34.895Z,40.82
2023-05-05T08:20:37.603Z,41.00
2023-05-05T08:21:33.159Z,40.92
2023-05-05T08:22:28.698Z,40.80
2023-05-05T08:23:24.246Z,40.50
2023-05-05T08:24:19.841Z,41.20
2023-05-05T08:25:15.430Z,41.41
2023-05-05T08:26:11.067Z,40.20
2023-05-05T08:27:06.502Z,40.99
2023-05-05T08:28:02.075Z,40.78
2023-05-05T08:28:57.594Z,41.29
2023-05-05T08:29:53.150Z,41.47
2023-05-05T08:30:48.689Z,41.19
2023-05-05T08:31:33.383Z,41.17
2023-05-05T08:32:29.847Z,40.36
2023-05-05T08:33:24.431Z,39.56
2023-05-05T08:34:09.099Z,40.26
2023-05-05T08:35:04.665Z,40.84
2023-05-05T08:36:00.180Z,39.92
2023-05-05T08:36:55.737Z,40.02
2023-05-05T08:37:51.286Z,40.20
2023-05-05T08:38:46.850Z,39.50
2023-05-05T08:39:42.393Z,40.08
2023-05-05T08:40:37.939Z,39.36
2023-05-05T08:41:33.492Z,40.26
2023-05-05T08:42:37.135Z,39.34
2023-05-05T08:43:24.562Z,39.25
2023-05-05T08:44:20.123Z,40.13
2023-05-05T08:45:15.683Z,39.51
2023-05-05T08:46:11.225Z,38.89
2023-05-05T08:47:06.827Z,37.48
2023-05-05T08:47:52.300Z,37.08
2023-05-05T08:48:47.802Z,37.77
2023-05-05T08:49:43.365Z,36.66
2023-05-05T08:50:38.938Z,37.07
2023-05-05T08:51:34.472Z,37.05
2023-05-05T08:52:30.010Z,37.35
2023-05-05T08:53:14.669Z,37.13
2023-05-05T08:54:10.222Z,37.13
2023-05-05T08:55:05.918Z,36.23
2023-05-05T08:56:01.329Z,36.31
2023-05-05T08:56:57.104Z,36.01
2023-05-05T08:57:52.424Z,37.11
2023-05-05T08:58:47.970Z,35.80
2023-05-05T08:59:43.513Z,35.19
2023-05-05T09:00:39.095Z,35.39
2023-05-05T09:01:34.622Z,35.48
2023-05-05T09:02:30.240Z,35.18
2023-05-05T09:03:25.806Z,35.56
2023-05-05T09:04:21.264Z,35.66
2023-05-05T09:05:16.823Z,35.05
2023-05-05T09:06:12.367Z,33.95
2023-05-05T09:07:07.898Z,34.83
2023-05-05T09:08:03.445Z,34.43
2023-05-05T09:08:59.743Z,34.41
2023-05-05T09:09:54.525Z,33.51
2023-05-05T09:10:50.070Z,33.42
2023-05-05T09:11:34.739Z,33.51
2023-05-05T09:12:30.424Z,33.20
2023-05-05T09:13:25.841Z,33.20
2023-05-05T09:14:21.394Z,33.18
2023-05-05T09:15:16.936Z,33.07
2023-05-05T09:16:12.511Z,32.67
2023-05-05T09:17:08.197Z,32.15
2023-05-05T09:18:03.648Z,32.56
2023-05-05T09:18:59.157Z,33.04
2023-05-05T09:19:54.714Z,33.52
2023-05-05T09:20:50.244Z,32.42
2023-05-05T09:21:45.801Z,32.53
2023-05-05T09:22:41.394Z,32.60
2023-05-05T09:23:36.914Z,32.11
2023-05-05T09:24:32.453Z,31.80
2023-05-05T09:25:28.020Z,32.18
2023-05-05T09:26:23.558Z,30.19
2023-05-05T09:27:19.136Z,30.57
2023-05-05T09:28:14.782Z,30.47
2023-05-05T09:29:10.262Z,30.38
2023-05-05T09:30:05.780Z,29.48
2023-05-05T09:31:01.384Z,29.48
2023-05-05T09:31:56.912Z,29.28
2023-05-05T09:32:52.509Z,29.48
2023-05-05T09:33:48.026Z,29.07
2023-05-05T09:34:43.576Z,28.88
2023-05-05T09:35:39.119Z,28.96
2023-05-05T09:36:34.686Z,28.76
2023-05-05T09:37:30.223Z,28.46
2023-05-05T09:38:25.791Z,28.94
2023-05-05T09:39:11.478Z,28.75
2023-05-05T09:40:07.042Z,28.73
2023-05-05T09:41:02.571Z,28.63
2023-05-05T09:41:58.114Z,27.04
2023-05-05T09:42:53.677Z,27.94
2023-05-05T09:43:49.430Z,28.34
2023-05-05T09:44:33.961Z,27.44
2023-05-05T09:45:42.605Z,28.14
2023-05-05T09:46:38.249Z,28.22
2023-05-05T09:47:34.841Z,27.02
2023-05-05T09:48:29.379Z,27.53
2023-05-05T09:49:24.818Z,26.73
2023-05-05T09:50:20.450Z,27.51
2023-05-05T09:51:15.895Z,26.43
2023-05-05T09:52:11.437Z,27.42
2023-05-05T09:53:06.999Z,26.81
2023-05-05T09:54:02.552Z,26.81
2023-05-05T09:54:58.110Z,26.50
2023-05-05T09:55:53.650Z,26.70
2023-05-05T09:56:49.198Z,26.40
2023-05-05T09:57:44.772Z,27.49
2023-05-05T09:58:40.316Z,26.49
2023-05-05T09:59:35.881Z,27.48
2023-05-05T10:00:31.392Z,27.48
2023-05-05T10:01:26.977Z,27.38
2023-05-05T10:02:22.495Z,26.98
2023-05-05T10:03:18.027Z,26.78
2023-05-05T10:04:13.594Z,26.49
2023-05-05T10:05:09.340Z,26.19
2023-05-05T10:06:04.709Z,25.90
2023-05-05T10:07:00.246Z,26.39
2023-05-05T10:07:55.792Z,26.68
2023-05-05T10:08:51.336Z,26.08
2023-05-05T10:09:46.918Z,26.28
2023-05-05T10:10:42.464Z,26.28
2023-05-05T10:11:38.030Z,26.87
2023-05-05T10:12:33.609Z,26.18
2023-05-05T10:13:29.143Z,25.90
2023-05-05T10:14:24.709Z,26.29
2023-05-05T10:15:20.343Z,26.89
2023-05-05T10:16:15.829Z,26.89
2023-05-05T10:17:11.339Z,25.90
2023-05-05T10:18:08.437Z,26.10
2023-05-05T10:19:02.480Z,26.60
2023-05-05T10:19:47.158Z,26.31
2023-05-05T10:20:42.706Z,25.99
2023-05-05T10:21:39.318Z,25.90
2023-05-05T10:22:33.799Z,26.59
2023-05-05T10:23:29.345Z,25.89
2023-05-05T10:24:24.900Z,25.99
2023-05-05T10:25:20.465Z,26.38
2023-05-05T10:26:16.010Z,25.99
2023-05-05T10:27:12.687Z,25.99
2023-05-05T10:28:07.135Z,25.98
2023-05-05T10:29:02.683Z,25.09
2023-05-05T10:29:58.246Z,25.29
2023-05-05T10:30:54.001Z,25.09
2023-05-05T10:31:49.470Z,25.19
2023-05-05T10:33:40.580Z,26.67
2023-05-05T10:34:36.125Z,25.98
2023-05-05T10:35:31.631Z,26.66
2023-05-05T10:36:27.187Z,25.97
2023-05-05T10:37:22.756Z,26.26
2023-05-05T10:38:18.275Z,25.38
2023-05-05T10:39:13.841Z,24.98
2023-05-05T10:40:09.642Z,25.48
2023-05-05T10:41:04.990Z,25.38
2023-05-05T10:42:00.520Z,25.57
2023-05-05T10:42:56.063Z,24.98
2023-05-05T10:43:51.623Z,25.16
2023-05-05T10:44:47.182Z,25.57
2023-05-05T10:45:42.807Z,25.38
2023-05-05T10:46:38.513Z,25.09
2023-05-05T10:47:33.850Z,26.07
2023-05-05T10:48:29.422Z,24.40
2023-05-05T10:49:24.952Z,24.69
2023-05-05T10:50:20.512Z,25.09
2023-05-05T10:51:27.381Z,25.29
2023-05-05T10:52:11.648Z,25.19
2023-05-05T10:53:07.182Z,25.39
2023-05-05T10:54:02.764Z,25.29
2023-05-05T10:54:58.264Z,25.08
2023-05-05T10:55:53.811Z,25.59
2023-05-05T10:56:38.479Z,24.98
2023-05-05T10:57:34.035Z,25.18
2023-05-05T10:58:29.598Z,25.57
2023-05-05T10:59:14.292Z,25.49
2023-05-05T11:00:10.841Z,25.09
2023-05-05T11:01:06.436Z,25.48
2023-05-05T11:02:02.045Z,25.19
2023-05-05T11:02:57.613Z,24.99
2023-05-05T11:03:53.127Z,25.29
2023-05-05T11:04:48.646Z,26.26
2023-05-05T11:05:44.194Z,25.37
2023-05-05T11:06:39.751Z,25.16
2023-05-05T11:07:24.445Z,24.67
2023-05-05T11:08:19.974Z,24.68
2023-05-05T11:09:16.537Z,25.37
2023-05-05T11:10:12.252Z,25.28
2023-05-05T11:11:07.645Z,25.18
2023-05-05T11:12:03.176Z,25.16
2023-05-05T11:12:58.790Z,25.18
2023-05-05T11:13:54.282Z,25.18
2023-05-05T11:14:49.840Z,25.18
2023-05-05T11:15:45.405Z,25.38
2023-05-05T11:16:40.989Z,25.28
2023-05-05T11:17:36.685Z,25.09
2023-05-05T11:18:21.174Z,25.89
2023-05-05T11:19:16.739Z,25.19
2023-05-05T11:20:12.315Z,25.49
2023-05-05T11:21:07.884Z,25.29
2023-05-05T11:22:03.473Z,26.38
2023-05-05T11:22:58.991Z,25.98
2023-05-05T11:23:54.558Z,25.78
2023-05-05T11:24:50.097Z,25.59
2023-05-05T11:25:45.657Z,25.49
2023-05-05T11:26:41.227Z,25.19
2023-05-05T11:27:36.761Z,25.20
2023-05-05T11:28:32.316Z,25.42
2023-05-05T11:29:27.876Z,25.21
2023-05-05T11:30:23.423Z,25.21
2023-05-05T11:31:19.007Z,25.32
2023-05-05T11:32:14.524Z,26.40
2023-05-05T11:33:10.170Z,25.02
2023-05-05T11:34:05.627Z,25.72
2023-05-05T11:35:01.180Z,26.42
2023-05-05T11:35:56.745Z,26.21
2023-05-05T11:36:52.283Z,26.61
2023-05-05T11:37:47.830Z,26.51
2023-05-05T11:38:32.511Z,26.02
2023-05-05T11:39:28.068Z,26.13
2023-05-05T11:40:23.646Z,26.51
2023-05-05T11:41:19.194Z,26.13
2023-05-05T11:42:09.423Z,25.93
2023-05-05T11:42:59.448Z,26.23
2023-05-05T11:43:54.983Z,26.03
2023-05-05T11:44:50.524Z,26.64
2023-05-05T11:45:46.113Z,26.34
2023-05-05T11:46:41.750Z,27.03
2023-05-05T11:47:37.235Z,27.44
2023-05-05T11:48:32.785Z,26.85
2023-05-05T11:49:28.319Z,26.95
2023-05-05T11:50:23.867Z,27.06
2023-05-05T11:51:19.424Z,27.26